Time;durP1;ratioP1;P1;durP2;ratioP2;P2;SDS_P1;SDS_P2;PMS_P1;PMS_P2;Temp;Humidity;BMP_temperature;BMP_pressure;BME280_temperature;BME280_humidity;BME280_pressure;Samples;Min_cycle;Max_cycle;Signal;HPM_P1;HPM_P2
2022/06/12 00:01:06;;;;;;;5.88;5.10;;;;;;;;;;4975986;28;20450;-74
2022/06/12 00:03:33;;;;;;;7.00;5.90;;;;;;;;;;4975388;28;20147;-72
2022/06/12 00:05:59;;;;;;;5.80;5.20;;;;;;;;;;4975991;28;20383;-73
2022/06/12 00:08:25;;;;;;;8.43;5.35;;;;;;;;;;4977489;28;20070;-72
2022/06/12 00:10:52;;;;;;;6.28;5.57;;;;;;;;;;4977384;28;21012;-72
2022/06/12 00:13:21;;;;;;;7.25;5.55;;;;;;;;;;4975728;28;20030;-72
2022/06/12 00:15:47;;;;;;;6.43;5.32;;;;;;;;;;4975600;28;20069;-72
2022/06/12 00:18:12;;;;;;;6.22;5.22;;;;;;;;;;4976350;28;20039;-73
2022/06/12 00:20:38;;;;;;;8.20;6.03;;;;;;;;;;4975239;28;20026;-71
2022/06/12 00:23:13;;;;;;;7.40;6.07;;;;;;;;;;4977711;28;20853;-70
2022/06/12 00:25:39;;;;;;;7.10;6.07;;;;;;;;;;4976547;28;20022;-71
2022/06/12 00:28:05;;;;;;;6.45;5.85;;;;;;;;;;4977563;28;20026;-71
2022/06/12 00:30:31;;;;;;;5.85;5.20;;;;;;;;;;4977271;28;20035;-74
2022/06/12 00:32:56;;;;;;;8.35;5.35;;;;;;;;;;4976382;28;20076;-70
2022/06/12 00:35:24;;;;;;;6.18;5.57;;;;;;;;;;4976355;28;20046;-74
2022/06/12 00:37:50;;;;;;;5.80;5.30;;;;;;;;;;4977258;28;20077;-71
2022/06/12 00:40:15;;;;;;;6.40;5.47;;;;;;;;;;4977045;28;20441;-71
2022/06/12 00:42:46;;;;;;;5.68;5.18;;;;;;;;;;4979812;28;20346;-71
2022/06/12 00:45:30;;;;;;;6.43;5.75;;;;;;;;;;4977763;28;20394;-74
2022/06/12 00:47:56;;;;;;;6.32;5.72;;;;;;;;;;4977091;28;20180;-71
2022/06/12 00:50:21;;;;;;;5.80;5.25;;;;;;;;;;4977173;28;20610;-70
2022/06/12 00:52:49;;;;;;;7.85;6.28;;;;;;;;;;4976629;28;20038;-71
2022/06/12 00:55:20;;;;;;;6.57;5.97;;;;;;;;;;4978556;28;20050;-72
2022/06/12 00:57:45;;;;;;;6.63;6.00;;;;;;;;;;4970605;28;20047;-70
2022/06/12 01:00:13;;;;;;;7.47;6.20;;;;;;;;;;4971499;28;20077;-73
2022/06/12 01:02:39;;;;;;;10.27;6.50;;;;;;;;;;4970138;28;20104;-70
2022/06/12 01:07:52;;;;;;;8.00;7.25;;;;;;;;;;4969824;28;20082;-70
2022/06/12 01:10:18;;;;;;;7.50;6.78;;;;;;;;;;4968889;28;20031;-70
2022/06/12 01:12:52;;;;;;;10.77;6.57;;;;;;;;;;4969712;28;20041;-70
2022/06/12 01:15:20;;;;;;;7.03;6.35;;;;;;;;;;4972870;28;20026;-71
2022/06/12 01:17:45;;;;;;;7.90;6.15;;;;;;;;;;4983055;28;20037;-71
2022/06/12 01:20:14;;;;;;;9.10;6.93;;;;;;;;;;4979306;28;20113;-74
2022/06/12 01:22:58;;;;;;;7.63;6.30;;;;;;;;;;4981662;28;20026;-71
2022/06/12 01:25:26;;;;;;;8.13;7.03;;;;;;;;;;4978246;28;20257;-70
2022/06/12 01:28:11;;;;;;;7.75;6.55;;;;;;;;;;4981282;28;20031;-71
2022/06/12 01:30:44;;;;;;;8.13;6.32;;;;;;;;;;4968082;28;20025;-72
2022/06/12 01:33:09;;;;;;;9.13;7.22;;;;;;;;;;4969742;28;20354;-74
2022/06/12 01:35:46;;;;;;;7.65;6.95;;;;;;;;;;4972326;28;20033;-72
2022/06/12 01:38:14;;;;;;;8.32;7.55;;;;;;;;;;4971973;28;20112;-73
2022/06/12 01:40:46;;;;;;;8.25;7.30;;;;;;;;;;4967885;28;20038;-71
2022/06/12 01:43:14;;;;;;;8.45;7.25;;;;;;;;;;4971749;28;20113;-72
2022/06/12 01:45:53;;;;;;;7.88;6.72;;;;;;;;;;4971243;28;20022;-71
2022/06/12 01:48:22;;;;;;;6.68;6.07;;;;;;;;;;4968488;28;20030;-71
2022/06/12 01:50:50;;;;;;;9.05;7.72;;;;;;;;;;4971581;28;20030;-72
2022/06/12 01:53:15;;;;;;;8.55;7.72;;;;;;;;;;4971656;28;20018;-71
2022/06/12 01:55:45;;;;;;;8.00;7.30;;;;;;;;;;4973128;28;20045;-71
2022/06/12 01:58:21;;;;;;;8.27;7.22;;;;;;;;;;4974197;28;20042;-71
2022/06/12 02:00:54;;;;;;;9.20;6.90;;;;;;;;;;4972813;28;20030;-70
2022/06/12 02:03:19;;;;;;;7.47;6.78;;;;;;;;;;4971163;28;20025;-70
2022/06/12 02:05:53;;;;;;;13.93;6.93;;;;;;;;;;4974111;28;20027;-73
2022/06/12 02:08:22;;;;;;;7.53;6.72;;;;;;;;;;4969386;28;20039;-72
2022/06/12 02:10:47;;;;;;;7.75;7.05;;;;;;;;;;4969937;28;20442;-71
2022/06/12 02:13:23;;;;;;;7.95;6.60;;;;;;;;;;4970666;28;20023;-73
2022/06/12 02:15:52;;;;;;;7.18;6.47;;;;;;;;;;4972887;28;20030;-71
2022/06/12 02:18:29;;;;;;;9.32;6.57;;;;;;;;;;4967828;28;20027;-74
2022/06/12 02:21:15;;;;;;;6.80;6.10;;;;;;;;;;4970969;28;20026;-72
2022/06/12 02:23:46;;;;;;;9.00;6.93;;;;;;;;;;4967384;28;20501;-70
2022/06/12 02:26:14;;;;;;;7.75;6.65;;;;;;;;;;4969373;28;20053;-71
2022/06/12 02:28:41;;;;;;;8.73;6.88;;;;;;;;;;4968610;28;20034;-71
2022/06/12 02:31:12;;;;;;;6.78;6.18;;;;;;;;;;4971306;28;20022;-70
2022/06/12 02:33:40;;;;;;;7.70;6.60;;;;;;;;;;4971056;28;20122;-71
2022/06/12 02:36:15;;;;;;;12.85;7.47;;;;;;;;;;4967649;28;20029;-73
2022/06/12 02:38:44;;;;;;;7.55;6.35;;;;;;;;;;4972866;28;20030;-71
2022/06/12 02:41:18;;;;;;;7.68;6.75;;;;;;;;;;4972496;28;20711;-71
2022/06/12 02:43:44;;;;;;;8.55;7.07;;;;;;;;;;4968277;28;20029;-71
2022/06/12 02:46:26;;;;;;;7.00;6.30;;;;;;;;;;4973269;28;20030;-74
2022/06/12 02:48:52;;;;;;;7.28;6.57;;;;;;;;;;4971939;28;20041;-73
2022/06/12 02:51:23;;;;;;;10.15;6.80;;;;;;;;;;4972492;28;20494;-72
2022/06/12 02:53:49;;;;;;;7.28;6.57;;;;;;;;;;4970917;28;20033;-71
2022/06/12 02:56:17;;;;;;;6.88;6.18;;;;;;;;;;4972002;28;20727;-71
2022/06/12 02:58:54;;;;;;;6.80;6.03;;;;;;;;;;4970468;28;20030;-73
2022/06/12 03:01:22;;;;;;;6.97;6.28;;;;;;;;;;4972829;28;20031;-72
2022/06/12 03:04:04;;;;;;;7.93;6.32;;;;;;;;;;4973595;28;20026;-72
2022/06/12 03:06:30;;;;;;;6.93;6.28;;;;;;;;;;4967896;28;20034;-73
2022/06/12 03:08:58;;;;;;;7.78;6.90;;;;;;;;;;4969549;28;20042;-71
2022/06/12 03:11:23;;;;;;;9.32;6.60;;;;;;;;;;4971398;28;20038;-72
2022/06/12 03:13:50;;;;;;;7.35;6.38;;;;;;;;;;4970016;28;20030;-74
2022/06/12 03:16:17;;;;;;;7.07;6.45;;;;;;;;;;4969910;28;20038;-75
2022/06/12 03:18:55;;;;;;;6.88;6.20;;;;;;;;;;4967052;28;20053;-72
2022/06/12 03:21:39;;;;;;;8.25;6.88;;;;;;;;;;4971810;28;20038;-75
2022/06/12 03:24:14;;;;;;;7.03;6.43;;;;;;;;;;4967031;28;20015;-73
2022/06/12 03:26:40;;;;;;;7.63;6.82;;;;;;;;;;4974832;28;20113;-72
2022/06/12 03:29:11;;;;;;;7.15;6.45;;;;;;;;;;4971616;28;20121;-72
2022/06/12 03:31:56;;;;;;;7.63;6.63;;;;;;;;;;4972287;28;20034;-71
2022/06/12 03:34:28;;;;;;;6.63;6.03;;;;;;;;;;4961721;28;20046;-72
2022/06/12 03:36:57;;;;;;;8.18;6.45;;;;;;;;;;4974093;28;20729;-76
2022/06/12 03:39:30;;;;;;;9.00;6.28;;;;;;;;;;4973828;28;20031;-71
2022/06/12 03:42:05;;;;;;;8.00;6.45;;;;;;;;;;4969296;28;20031;-72
2022/06/12 03:44:34;;;;;;;6.78;6.13;;;;;;;;;;4970907;28;20537;-75
2022/06/12 03:46:59;;;;;;;7.53;6.63;;;;;;;;;;4971567;28;20354;-75
2022/06/12 03:49:30;;;;;;;7.70;6.40;;;;;;;;;;4968281;28;20053;-72
2022/06/12 03:52:12;;;;;;;7.50;6.22;;;;;;;;;;4970212;28;20964;-73
2022/06/12 03:54:53;;;;;;;8.65;7.07;;;;;;;;;;4974565;28;20023;-72
2022/06/12 04:00:05;;;;;;;7.75;6.38;;;;;;;;;;4969153;28;20122;-74
2022/06/12 04:02:32;;;;;;;7.63;6.47;;;;;;;;;;4967905;28;20088;-72
2022/06/12 04:04:58;;;;;;;7.20;5.80;;;;;;;;;;4969671;28;20031;-71
2022/06/12 04:07:24;;;;;;;10.07;6.97;;;;;;;;;;4971200;28;20093;-71
2022/06/12 04:09:52;;;;;;;6.72;5.93;;;;;;;;;;4969651;28;20030;-71
2022/06/12 04:12:23;;;;;;;6.53;5.90;;;;;;;;;;4969428;28;20023;-71
2022/06/12 04:14:52;;;;;;;7.82;7.03;;;;;;;;;;4970168;28;20026;-71
2022/06/12 04:17:18;;;;;;;7.70;6.90;;;;;;;;;;4970272;28;20031;-72
2022/06/12 04:19:59;;;;;;;7.00;6.38;;;;;;;;;;4971676;28;20038;-71
2022/06/12 04:22:26;;;;;;;7.18;6.22;;;;;;;;;;4972397;28;20433;-70
2022/06/12 04:24:59;;;;;;;12.02;6.70;;;;;;;;;;4967542;28;20113;-71
2022/06/12 04:27:27;;;;;;;7.55;6.75;;;;;;;;;;4970931;28;20377;-73
2022/06/12 04:29:55;;;;;;;6.95;6.35;;;;;;;;;;4968781;28;20038;-70
2022/06/12 04:32:20;;;;;;;7.60;6.75;;;;;;;;;;4970760;28;20138;-73
2022/06/12 04:34:46;;;;;;;7.68;6.97;;;;;;;;;;4970688;28;20593;-72
2022/06/12 04:37:30;;;;;;;6.88;6.22;;;;;;;;;;4970769;28;20031;-71
2022/06/12 04:39:57;;;;;;;6.50;5.72;;;;;;;;;;4966697;28;20113;-71
2022/06/12 04:42:23;;;;;;;6.72;5.82;;;;;;;;;;4969917;28;20475;-71
2022/06/12 04:44:49;;;;;;;6.38;5.78;;;;;;;;;;4975108;28;20109;-71
2022/06/12 04:47:16;;;;;;;7.35;6.65;;;;;;;;;;4972759;28;20042;-74
2022/06/12 04:49:41;;;;;;;6.82;6.22;;;;;;;;;;4972961;28;20034;-71
2022/06/12 04:52:09;;;;;;;7.50;6.80;;;;;;;;;;4974168;28;20366;-72
2022/06/12 04:54:35;;;;;;;8.30;6.75;;;;;;;;;;4975813;28;20026;-73
2022/06/12 04:57:01;;;;;;;12.73;6.65;;;;;;;;;;4975594;28;20398;-72
2022/06/12 04:59:27;;;;;;;7.72;6.85;;;;;;;;;;4970797;28;20086;-70
2022/06/12 05:01:53;;;;;;;7.82;7.07;;;;;;;;;;4974290;28;20034;-71
2022/06/12 05:04:19;;;;;;;7.47;6.78;;;;;;;;;;4975507;28;20027;-71
2022/06/12 05:06:45;;;;;;;8.45;7.55;;;;;;;;;;4973641;28;20026;-71
2022/06/12 05:09:11;;;;;;;7.43;6.50;;;;;;;;;;4972915;28;20475;-76
2022/06/12 05:11:36;;;;;;;7.43;6.63;;;;;;;;;;4971044;28;20065;-71
2022/06/12 05:14:02;;;;;;;8.60;6.95;;;;;;;;;;4974860;28;20034;-70
2022/06/12 05:16:34;;;;;;;7.50;6.80;;;;;;;;;;4974948;28;20042;-71
2022/06/12 05:19:01;;;;;;;7.82;7.03;;;;;;;;;;4969470;28;20089;-72
2022/06/12 05:21:27;;;;;;;9.07;6.65;;;;;;;;;;4977905;28;20019;-72
2022/06/12 05:23:52;;;;;;;7.68;6.95;;;;;;;;;;4974999;28;20053;-71
2022/06/12 05:26:18;;;;;;;7.95;7.03;;;;;;;;;;4969102;28;20050;-71
2022/06/12 05:28:43;;;;;;;7.93;7.07;;;;;;;;;;4973179;28;20038;-75
2022/06/12 05:31:09;;;;;;;8.45;7.57;;;;;;;;;;4972603;28;20038;-72
2022/06/12 05:33:34;;;;;;;17.85;6.88;;;;;;;;;;4973431;28;20034;-75
2022/06/12 05:36:00;;;;;;;8.48;6.53;;;;;;;;;;4973907;28;20434;-72
2022/06/12 05:38:25;;;;;;;7.57;6.65;;;;;;;;;;4972839;28;20042;-75
2022/06/12 05:40:51;;;;;;;8.00;6.97;;;;;;;;;;4971704;28;20434;-72
2022/06/12 05:43:16;;;;;;;9.07;7.75;;;;;;;;;;4974743;28;20061;-72
2022/06/12 05:45:42;;;;;;;10.43;7.82;;;;;;;;;;4975878;28;20038;-72
2022/06/12 05:48:09;;;;;;;11.10;8.05;;;;;;;;;;4974397;28;20034;-72
2022/06/12 05:50:36;;;;;;;8.93;8.00;;;;;;;;;;4975301;28;20391;-74
2022/06/12 05:53:01;;;;;;;9.93;8.77;;;;;;;;;;4972928;28;20030;-71
2022/06/12 05:55:27;;;;;;;15.55;8.63;;;;;;;;;;4971313;28;20080;-71
2022/06/12 05:57:52;;;;;;;9.88;8.63;;;;;;;;;;4973820;28;20047;-70
2022/06/12 06:00:23;;;;;;;10.43;8.52;;;;;;;;;;4971769;28;20034;-72
2022/06/12 06:02:49;;;;;;;9.20;8.10;;;;;;;;;;4970834;28;20018;-71
2022/06/12 06:05:14;;;;;;;11.40;9.48;;;;;;;;;;4972493;28;20366;-71
2022/06/12 06:07:40;;;;;;;11.32;8.70;;;;;;;;;;4971823;28;20034;-71
2022/06/12 06:10:08;;;;;;;9.95;8.73;;;;;;;;;;4970875;28;20431;-72
2022/06/12 06:12:34;;;;;;;9.75;8.20;;;;;;;;;;4972466;28;20030;-71
2022/06/12 06:14:59;;;;;;;12.60;9.23;;;;;;;;;;4973007;28;20011;-70
2022/06/12 06:17:25;;;;;;;13.68;9.82;;;;;;;;;;4975047;28;20058;-70
2022/06/12 06:19:50;;;;;;;10.32;8.63;;;;;;;;;;4974260;28;20105;-76
2022/06/12 06:22:16;;;;;;;10.95;8.02;;;;;;;;;;4971306;28;20023;-71
2022/06/12 06:24:42;;;;;;;11.48;9.13;;;;;;;;;;4970450;28;20038;-69
2022/06/12 06:27:08;;;;;;;12.60;9.00;;;;;;;;;;4972697;28;20382;-70
2022/06/12 06:29:33;;;;;;;9.23;7.95;;;;;;;;;;4967419;28;20037;-72
2022/06/12 06:31:59;;;;;;;9.35;7.78;;;;;;;;;;4973699;28;20014;-71
2022/06/12 06:34:24;;;;;;;9.82;8.18;;;;;;;;;;4970916;28;20025;-75
2022/06/12 06:36:49;;;;;;;11.25;8.48;;;;;;;;;;4969964;28;20025;-72
2022/06/12 06:39:15;;;;;;;9.50;8.10;;;;;;;;;;4970511;28;20081;-72
2022/06/12 06:41:40;;;;;;;10.80;9.05;;;;;;;;;;4968772;28;20363;-77
2022/06/12 06:46:49;;;;;;;9.43;8.15;;;;;;;;;;4972390;28;20090;-72
2022/06/12 06:49:15;;;;;;;9.98;8.48;;;;;;;;;;4968371;28;20463;-71
2022/06/12 06:51:40;;;;;;;9.70;7.70;;;;;;;;;;4970884;28;20026;-71
2022/06/12 06:54:05;;;;;;;10.30;8.65;;;;;;;;;;4973212;28;20026;-71
2022/06/12 06:56:31;;;;;;;11.52;8.73;;;;;;;;;;4971519;28;20050;-72
2022/06/12 06:58:56;;;;;;;14.63;9.25;;;;;;;;;;4969612;28;20402;-73
2022/06/12 07:01:22;;;;;;;14.85;9.80;;;;;;;;;;4968443;28;20030;-75
2022/06/12 07:03:47;;;;;;;11.95;9.20;;;;;;;;;;4968790;28;20019;-74
2022/06/12 07:06:14;;;;;;;11.75;8.45;;;;;;;;;;4970759;28;20046;-71
2022/06/12 07:08:40;;;;;;;11.35;8.45;;;;;;;;;;4969346;28;20066;-72
2022/06/12 07:11:05;;;;;;;10.40;8.10;;;;;;;;;;4971044;28;20061;-71
2022/06/12 07:13:30;;;;;;;8.65;7.35;;;;;;;;;;4971957;28;20338;-71
2022/06/12 07:15:56;;;;;;;11.68;8.00;;;;;;;;;;4969925;28;20019;-71
2022/06/12 07:18:21;;;;;;;9.95;7.85;;;;;;;;;;4971016;28;20034;-76
2022/06/12 07:20:51;;;;;;;9.32;7.60;;;;;;;;;;4970519;28;20022;-71
2022/06/12 07:23:18;;;;;;;12.05;8.77;;;;;;;;;;4970986;28;20454;-72
2022/06/12 07:25:47;;;;;;;9.32;8.02;;;;;;;;;;4972685;28;20480;-73
2022/06/12 07:28:12;;;;;;;8.30;7.20;;;;;;;;;;4973903;28;20038;-74
2022/06/12 07:30:38;;;;;;;12.45;7.55;;;;;;;;;;4970116;28;20312;-73
2022/06/12 07:33:03;;;;;;;9.07;7.47;;;;;;;;;;4971963;28;20073;-75
2022/06/12 07:35:29;;;;;;;8.02;7.05;;;;;;;;;;4961126;28;20098;-71
2022/06/12 07:37:55;;;;;;;10.50;8.32;;;;;;;;;;4969092;28;20030;-71
2022/06/12 07:40:23;;;;;;;9.05;8.07;;;;;;;;;;4966511;28;20053;-74
2022/06/12 07:42:48;;;;;;;10.13;8.68;;;;;;;;;;4969256;28;20071;-72
2022/06/12 07:45:13;;;;;;;9.77;8.35;;;;;;;;;;4969051;28;20037;-75
2022/06/12 07:47:39;;;;;;;8.98;7.55;;;;;;;;;;4970141;28;20069;-78
2022/06/12 07:50:04;;;;;;;12.18;8.77;;;;;;;;;;4968282;28;20022;-72
2022/06/12 07:52:30;;;;;;;12.82;10.15;;;;;;;;;;4972405;28;20035;-71
2022/06/12 07:54:56;;;;;;;10.70;8.32;;;;;;;;;;4970369;28;20084;-71
2022/06/12 07:57:21;;;;;;;8.10;7.10;;;;;;;;;;4964809;28;20466;-70
2022/06/12 07:59:46;;;;;;;11.88;9.07;;;;;;;;;;4958942;28;20018;-72
2022/06/12 08:02:13;;;;;;;8.70;7.30;;;;;;;;;;4969030;28;20046;-75
2022/06/12 08:04:38;;;;;;;7.93;7.05;;;;;;;;;;4957076;28;20502;-71
2022/06/12 08:07:04;;;;;;;10.05;7.40;;;;;;;;;;4966156;28;20053;-71
2022/06/12 08:09:29;;;;;;;7.85;6.95;;;;;;;;;;4965633;28;20032;-69
2022/06/12 08:11:55;;;;;;;8.35;7.35;;;;;;;;;;4970324;28;20093;-69
2022/06/12 08:14:21;;;;;;;8.38;7.47;;;;;;;;;;4970012;28;20069;-70
2022/06/12 08:16:46;;;;;;;10.98;6.95;;;;;;;;;;4969562;28;20426;-71
2022/06/12 08:21:57;;;;;;;8.38;6.60;;;;;;;;;;4970622;28;20058;-66
2022/06/12 08:24:22;;;;;;;9.02;7.53;;;;;;;;;;4973956;28;20035;-73
2022/06/12 08:26:48;;;;;;;8.85;7.32;;;;;;;;;;4974896;28;20023;-70
2022/06/12 08:29:14;;;;;;;8.82;6.40;;;;;;;;;;4972411;28;20030;-70
2022/06/12 08:31:45;;;;;;;9.13;7.68;;;;;;;;;;4974923;28;20030;-69
2022/06/12 08:34:15;;;;;;;8.18;7.38;;;;;;;;;;4971450;28;20369;-71
2022/06/12 08:36:41;;;;;;;7.68;6.55;;;;;;;;;;4970522;28;20019;-70
2022/06/12 08:39:07;;;;;;;7.68;6.93;;;;;;;;;;4973745;28;20458;-73
2022/06/12 08:41:41;;;;;;;8.68;6.82;;;;;;;;;;4972050;28;20054;-73
2022/06/12 08:44:22;;;;;;;8.10;7.05;;;;;;;;;;4973751;28;20019;-71
2022/06/12 08:47:04;;;;;;;9.07;6.63;;;;;;;;;;4969329;28;20053;-70
2022/06/12 08:49:47;;;;;;;7.25;6.55;;;;;;;;;;4971311;28;20022;-69
2022/06/12 08:52:34;;;;;;;7.05;6.35;;;;;;;;;;4972556;28;20026;-68
2022/06/12 08:55:03;;;;;;;9.02;6.60;;;;;;;;;;4969788;28;20069;-72
2022/06/12 08:57:34;;;;;;;7.55;6.60;;;;;;;;;;4975831;28;20077;-69
2022/06/12 09:00:14;;;;;;;9.80;6.88;;;;;;;;;;4971848;28;20114;-68
2022/06/12 09:02:41;;;;;;;7.50;6.70;;;;;;;;;;4971604;28;20030;-69
2022/06/12 09:05:09;;;;;;;9.15;6.18;;;;;;;;;;4974635;28;20359;-70
2022/06/12 09:07:53;;;;;;;8.55;7.55;;;;;;;;;;4971487;28;20105;-73
2022/06/12 09:10:27;;;;;;;7.43;6.55;;;;;;;;;;4969149;28;20034;-68
2022/06/12 09:13:04;;;;;;;9.52;7.50;;;;;;;;;;4969724;28;20448;-68
2022/06/12 09:15:48;;;;;;;6.80;5.95;;;;;;;;;;4970266;28;20439;-71
2022/06/12 09:18:17;;;;;;;7.20;6.15;;;;;;;;;;4972208;28;20027;-67
2022/06/12 09:20:49;;;;;;;6.70;6.03;;;;;;;;;;4970100;28;20031;-71
2022/06/12 09:23:34;;;;;;;8.20;5.97;;;;;;;;;;4974702;28;20046;-69
2022/06/12 09:26:18;;;;;;;8.05;6.55;;;;;;;;;;4971646;28;20038;-74
2022/06/12 09:28:43;;;;;;;6.57;5.95;;;;;;;;;;4974190;28;20033;-68
2022/06/12 09:31:11;;;;;;;6.65;6.05;;;;;;;;;;4971846;28;20031;-69
2022/06/12 09:33:47;;;;;;;8.43;6.07;;;;;;;;;;4973675;28;20031;-73
2022/06/12 09:36:21;;;;;;;7.05;6.35;;;;;;;;;;4973835;28;20153;-69
2022/06/12 09:38:53;;;;;;;6.88;5.93;;;;;;;;;;4974851;28;20031;-69
2022/06/12 09:41:22;;;;;;;8.43;5.90;;;;;;;;;;4970785;28;20034;-68
2022/06/12 09:43:53;;;;;;;9.43;6.75;;;;;;;;;;4973473;28;20502;-70
2022/06/12 09:46:25;;;;;;;6.18;5.28;;;;;;;;;;4983142;28;20262;-68
2022/06/12 09:48:58;;;;;;;6.88;5.85;;;;;;;;;;4971044;28;20026;-68
2022/06/12 09:51:53;;;;;;;6.38;5.78;;;;;;;;;;4967790;28;20058;-70
2022/06/12 09:54:18;;;;;;;5.78;5.13;;;;;;;;;;4878007;28;20049;-74
2022/06/12 09:56:54;;;;;;;6.45;5.38;;;;;;;;;;4970585;28;20492;-72
2022/06/12 09:59:25;;;;;;;6.22;5.63;;;;;;;;;;4969896;28;20054;-70
2022/06/12 10:01:54;;;;;;;9.05;6.03;;;;;;;;;;4971138;28;20135;-70
2022/06/12 10:04:40;;;;;;;6.97;5.47;;;;;;;;;;4970226;28;20037;-73
2022/06/12 10:07:07;;;;;;;6.00;5.40;;;;;;;;;;4970287;28;20284;-70
2022/06/12 10:09:38;;;;;;;7.25;5.10;;;;;;;;;;4970791;28;20066;-67
2022/06/12 10:12:24;;;;;;;5.80;5.30;;;;;;;;;;4968141;28;20086;-69
2022/06/12 10:14:52;;;;;;;6.53;5.82;;;;;;;;;;4971363;28;20798;-69
2022/06/12 10:17:20;;;;;;;6.40;5.80;;;;;;;;;;4969784;28;20033;-71
2022/06/12 10:19:45;;;;;;;6.45;4.50;;;;;;;;;;4969524;28;20466;-73
2022/06/12 10:22:16;;;;;;;5.50;5.00;;;;;;;;;;4957853;28;20054;-70
2022/06/12 10:24:42;;;;;;;6.38;5.78;;;;;;;;;;4973539;28;20170;-68
2022/06/12 10:27:10;;;;;;;5.75;5.15;;;;;;;;;;4970938;28;20038;-70
2022/06/12 10:29:41;;;;;;;5.72;4.40;;;;;;;;;;4970952;28;20022;-68
2022/06/12 10:32:11;;;;;;;6.05;5.45;;;;;;;;;;4971577;28;20047;-69
2022/06/12 10:34:36;;;;;;;;;;;;;;;;;;4970391;28;20057;-69
2022/06/12 10:37:15;;;;;;;5.27;4.77;;;;;;;;;;4973653;28;20337;-68
2022/06/12 10:39:41;;;;;;;6.63;5.43;;;;;;;;;;4967875;28;20034;-74
2022/06/12 10:42:10;;;;;;;7.20;5.50;;;;;;;;;;4972572;28;20030;-72
2022/06/12 10:44:39;;;;;;;8.43;5.47;;;;;;;;;;4970609;28;20038;-72
2022/06/12 10:47:20;;;;;;;5.60;5.10;;;;;;;;;;4970405;28;20058;-71
2022/06/12 10:49:46;;;;;;;6.75;5.00;;;;;;;;;;4971418;28;20086;-72
2022/06/12 10:52:19;;;;;;;6.22;5.60;;;;;;;;;;4969753;28;20041;-70
2022/06/12 10:54:45;;;;;;;4.82;4.43;;;;;;;;;;4970796;28;20071;-67
2022/06/12 10:57:11;;;;;;;5.82;5.25;;;;;;;;;;4969422;28;20051;-73
2022/06/12 10:59:45;;;;;;;5.97;5.38;;;;;;;;;;4975478;28;20097;-72
2022/06/12 11:02:23;;;;;;;6.03;5.53;;;;;;;;;;4971951;28;20022;-73
2022/06/12 11:04:58;;;;;;;6.63;5.45;;;;;;;;;;4968363;28;20058;-73
2022/06/12 11:07:35;;;;;;;7.60;6.20;;;;;;;;;;4969260;28;20365;-70
2022/06/12 11:10:00;;;;;;;6.47;5.70;;;;;;;;;;4968136;28;20032;-71
2022/06/12 11:12:28;;;;;;;5.32;4.82;;;;;;;;;;4968586;28;20030;-72
2022/06/12 11:14:57;;;;;;;6.37;5.70;;;;;;;;;;4970078;28;20776;-71
2022/06/12 11:17:48;;;;;;;5.83;5.30;;;;;;;;;;4970752;28;20268;-73
2022/06/12 11:20:17;;;;;;;5.70;5.13;;;;;;;;;;4964694;28;20034;-70
2022/06/12 11:22:45;;;;;;;8.37;5.97;;;;;;;;;;4965738;28;20034;-74
2022/06/12 11:25:29;;;;;;;6.63;5.45;;;;;;;;;;4969536;28;20026;-70
2022/06/12 11:28:10;;;;;;;7.63;5.93;;;;;;;;;;4968615;28;20050;-70
2022/06/12 11:30:39;;;;;;;8.05;6.13;;;;;;;;;;4966520;28;20038;-69
2022/06/12 11:33:23;;;;;;;6.00;5.50;;;;;;;;;;4968774;28;20114;-74
2022/06/12 11:35:54;;;;;;;7.15;6.55;;;;;;;;;;4972103;28;20031;-72
2022/06/12 11:38:28;;;;;;;7.03;6.32;;;;;;;;;;4968161;28;20046;-71
2022/06/12 11:41:09;;;;;;;8.07;7.28;;;;;;;;;;4972116;28;20436;-70
2022/06/12 11:43:50;;;;;;;8.40;6.00;;;;;;;;;;4970810;28;20445;-71
2022/06/12 11:46:19;;;;;;;9.23;6.13;;;;;;;;;;4973059;28;20810;-69
2022/06/12 11:49:02;;;;;;;7.10;6.40;;;;;;;;;;4972856;28;20030;-73
2022/06/12 11:51:30;;;;;;;6.55;5.95;;;;;;;;;;4968658;28;20114;-74
2022/06/12 11:54:10;;;;;;;6.47;5.88;;;;;;;;;;4966942;28;20088;-72
2022/06/12 11:56:38;;;;;;;6.30;5.70;;;;;;;;;;4973138;28;20080;-70
2022/06/12 11:59:12;;;;;;;6.10;4.90;;;;;;;;;;4970854;28;20066;-70
2022/06/12 12:01:46;;;;;;;6.32;5.72;;;;;;;;;;4976051;28;20027;-73
2022/06/12 12:04:27;;;;;;;8.20;6.55;;;;;;;;;;4973451;28;20035;-71
2022/06/12 12:07:13;;;;;;;7.30;6.60;;;;;;;;;;4973190;28;20083;-73
2022/06/12 12:09:57;;;;;;;8.23;7.32;;;;;;;;;;4937018;28;20051;-71
2022/06/12 12:12:29;;;;;;;7.65;6.95;;;;;;;;;;4973371;28;20114;-73
2022/06/12 12:14:55;;;;;;;7.38;6.68;;;;;;;;;;4969274;28;20402;-73
2022/06/12 12:17:24;;;;;;;7.85;6.95;;;;;;;;;;4955752;28;20058;-71
2022/06/12 12:19:51;;;;;;;7.00;6.30;;;;;;;;;;4962643;28;20033;-75
2022/06/12 12:22:36;;;;;;;6.55;5.93;;;;;;;;;;4963067;28;20034;-71
2022/06/12 12:25:08;;;;;;;7.30;6.30;;;;;;;;;;4966058;28;20018;-65
2022/06/12 12:27:37;;;;;;;7.50;6.80;;;;;;;;;;4954835;28;20027;-73
2022/06/12 12:30:06;;;;;;;18.80;7.90;;;;;;;;;;4959009;28;20519;-69
2022/06/12 12:32:33;;;;;;;12.45;7.78;;;;;;;;;;4952630;28;20679;-68
2022/06/12 12:34:59;;;;;;;7.53;6.72;;;;;;;;;;4966268;28;20030;-70
2022/06/12 12:43:11;;;;;;;7.35;6.60;;;;;;;;;;4954902;28;20371;-68
2022/06/12 12:45:37;;;;;;;6.95;6.25;;;;;;;;;;4957392;28;20022;-68
2022/06/12 12:48:04;;;;;;;7.50;6.80;;;;;;;;;;4950743;28;20042;-69
2022/06/12 12:50:41;;;;;;;13.82;11.85;;;;;;;;;;4953900;28;20038;-70
2022/06/12 12:53:06;;;;;;;9.93;7.80;;;;;;;;;;4953690;28;20019;-70
2022/06/12 12:55:34;;;;;;;8.68;7.78;;;;;;;;;;4964402;28;20061;-69
2022/06/12 12:58:13;;;;;;;11.38;9.30;;;;;;;;;;4952893;28;20498;-70
2022/06/12 13:00:38;;;;;;;10.30;7.67;;;;;;;;;;4966786;28;20038;-71
2022/06/12 13:03:06;;;;;;;20.92;15.50;;;;;;;;;;4969995;28;20014;-70
2022/06/12 13:05:41;;;;;;;20.27;18.15;;;;;;;;;;4970763;28;20178;-68
2022/06/12 13:08:06;;;;;;;9.57;8.57;;;;;;;;;;4973047;28;20043;-70
2022/06/12 13:10:39;;;;;;;8.68;7.45;;;;;;;;;;4969663;28;20472;-68
2022/06/12 13:13:08;;;;;;;7.38;6.63;;;;;;;;;;4971633;28;20058;-70
2022/06/12 13:15:33;;;;;;;7.07;6.47;;;;;;;;;;4974338;28;20044;-72
2022/06/12 13:18:21;;;;;;;7.70;6.93;;;;;;;;;;4972495;28;20038;-69
2022/06/12 13:20:52;;;;;;;8.17;6.93;;;;;;;;;;4962848;28;20102;-69
2022/06/12 13:23:27;;;;;;;7.00;6.40;;;;;;;;;;4969322;28;20788;-70
2022/06/12 13:25:56;;;;;;;7.50;6.80;;;;;;;;;;4970386;28;20022;-67
2022/06/12 13:28:25;;;;;;;8.55;7.05;;;;;;;;;;4959598;28;20026;-68
2022/06/12 13:30:51;;;;;;;10.50;6.72;;;;;;;;;;4968362;28;20477;-68
2022/06/12 13:33:18;;;;;;;7.10;6.40;;;;;;;;;;4960545;28;20546;-67
2022/06/12 13:35:45;;;;;;;6.50;5.90;;;;;;;;;;4972176;28;20094;-69
2022/06/12 13:38:16;;;;;;;7.10;6.40;;;;;;;;;;4965976;28;20058;-71
2022/06/12 13:40:43;;;;;;;8.05;6.07;;;;;;;;;;4958536;28;20026;-69
2022/06/12 13:43:10;;;;;;;6.60;6.00;;;;;;;;;;4958225;28;20027;-67
2022/06/12 13:45:36;;;;;;;6.90;6.20;;;;;;;;;;4964173;28;20049;-71
2022/06/12 13:48:13;;;;;;;6.45;5.88;;;;;;;;;;4957835;28;20031;-68
2022/06/12 13:50:44;;;;;;;6.43;5.82;;;;;;;;;;4973358;28;20033;-68
2022/06/12 13:53:15;;;;;;;6.82;6.13;;;;;;;;;;4970119;28;20101;-69
2022/06/12 13:55:53;;;;;;;6.68;6.07;;;;;;;;;;4970504;28;20034;-70
2022/06/12 13:58:35;;;;;;;6.47;5.78;;;;;;;;;;4970316;28;20739;-69
2022/06/12 14:01:05;;;;;;;6.50;5.93;;;;;;;;;;4969197;28;20041;-69
2022/06/12 14:03:34;;;;;;;5.80;5.22;;;;;;;;;;4970990;28;20031;-69
2022/06/12 14:06:08;;;;;;;7.50;6.72;;;;;;;;;;4969445;28;20034;-71
2022/06/12 14:08:34;;;;;;;13.35;6.38;;;;;;;;;;4967619;28;20066;-70
2022/06/12 14:11:00;;;;;;;6.97;6.28;;;;;;;;;;4972639;28;20386;-70
2022/06/12 14:13:25;;;;;;;6.43;5.82;;;;;;;;;;4970513;28;20027;-71
2022/06/12 14:15:51;;;;;;;8.30;5.65;;;;;;;;;;4971940;28;20050;-69
2022/06/12 14:18:25;;;;;;;6.57;5.80;;;;;;;;;;4969669;28;20129;-71
2022/06/12 14:21:15;;;;;;;5.50;5.00;;;;;;;;;;4960298;28;20117;-70
2022/06/12 14:23:44;;;;;;;6.60;5.30;;;;;;;;;;4958594;28;20023;-70
2022/06/12 14:26:09;;;;;;;;;;;;;;;;;;4954353;28;20027;-70
2022/06/12 14:28:35;;;;;;;5.70;5.17;;;;;;;;;;4953670;28;20341;-69
2022/06/12 14:31:03;;;;;;;5.55;5.05;;;;;;;;;;4961901;28;20097;-73
2022/06/12 14:33:48;;;;;;;7.13;5.20;;;;;;;;;;4960073;28;20022;-73
2022/06/12 14:36:28;;;;;;;11.73;6.13;;;;;;;;;;4962104;28;20055;-70
2022/06/12 14:38:55;;;;;;;5.90;5.35;;;;;;;;;;4963149;28;20085;-73
2022/06/12 14:41:27;;;;;;;6.05;5.47;;;;;;;;;;4963274;28;20031;-72
2022/06/12 14:43:54;;;;;;;6.05;5.28;;;;;;;;;;4958126;28;20044;-70
2022/06/12 14:46:23;;;;;;;6.10;5.40;;;;;;;;;;4961719;28;20023;-71
2022/06/12 14:48:48;;;;;;;5.53;5.03;;;;;;;;;;4962286;28;20032;-73
2022/06/12 14:51:14;;;;;;;6.68;5.75;;;;;;;;;;4961353;28;20030;-69
2022/06/12 14:53:39;;;;;;;5.90;5.40;;;;;;;;;;4963265;28;20735;-69
2022/06/12 14:56:10;;;;;;;6.53;5.93;;;;;;;;;;4962679;28;20026;-70
2022/06/12 14:58:37;;;;;;;5.90;5.38;;;;;;;;;;4965515;28;20050;-69
2022/06/12 15:01:07;;;;;;;5.88;5.38;;;;;;;;;;4959867;28;20462;-68
2022/06/12 15:03:33;;;;;;;6.82;4.80;;;;;;;;;;4972869;28;20031;-70
2022/06/12 15:06:02;;;;;;;6.30;5.47;;;;;;;;;;4959641;28;20022;-72
2022/06/12 15:08:28;;;;;;;5.63;5.13;;;;;;;;;;4961719;28;20398;-69
2022/06/12 15:10:54;;;;;;;5.70;5.20;;;;;;;;;;4965284;28;20042;-72
2022/06/12 15:13:21;;;;;;;5.78;5.28;;;;;;;;;;4973489;28;20056;-70